Cap Aiguades — FMII — position and weather

sailwx.info

Track history (hours):
 
Tides and Currents Weather Stations Pressure Air Temp Water Temp Dewpoint Dewpoint Depression Visibility Wind Speed Wind Dir Waves Ship Positions

Cap Aiguades

Last reported at 2014-Oct-31 21:33 UTC. Time now 2014-Oct-31 21:40 UTC.
Position N 43°25' E 004°51'.

Length 89 m; draft 3.3 m.

Type: Ship. MMSI: 228237800.

Date/timePositionNaut miles runAvg speedWind from/ knotsBaromVisibWave heightAir tempDewpointWater temp
2014-Oct-31 21:33N 43°25' E 004°51'0 0.0
2014-Oct-31 20:28N 43°25' E 004°51'0 0.0
2014-Oct-31 19:33N 43°25' E 004°51'0 0.0
2014-Oct-31 18:33N 43°25' E 004°51'0 0.0
2014-Oct-31 17:32N 43°25' E 004°51'6 6.1
2014-Oct-31 16:34N 43°23' E 004°59'0 0.4
2014-Oct-31 15:34N 43°24' E 004°59'0 0.0
2014-Oct-31 14:34N 43°24' E 004°59'0 0.0
2014-Oct-31 13:33N 43°24' E 004°59'0 0.0
2014-Oct-31 12:34N 43°24' E 004°59'0 0.0
2014-Oct-31 11:34N 43°24' E 004°59'0 0.0
2014-Oct-31 10:34N 43°24' E 004°59'0 0.0
2014-Oct-31 09:34N 43°24' E 004°59'0 0.0
2014-Oct-31 08:34N 43°24' E 004°59'0 0.0
2014-Oct-31 07:34N 43°24' E 004°59'0 0.0
2014-Oct-31 06:33N 43°24' E 004°59'0 0.0
2014-Oct-31 05:34N 43°24' E 004°59'1 0.6
2014-Oct-31 04:34N 43°24' E 004°59'0 0.0
2014-Oct-31 03:33N 43°24' E 004°59'0 0.0
2014-Oct-31 02:33N 43°24' E 004°59'0 0.0
2014-Oct-31 01:33N 43°24' E 004°59'0 0.0
2014-Oct-31 00:34N 43°24' E 004°59'0 0.0
2014-Oct-30 23:33N 43°24' E 004°59'0 0.0
2014-Oct-30 22:34N 43°24' E 004°59'0 0.0
2014-Oct-30 21:33N 43°24' E 004°59'0 0.0
2014-Oct-30 20:33N 43°24' E 004°59'0 0.0
2014-Oct-30 19:34N 43°24' E 004°59'0 0.0
2014-Oct-30 18:34N 43°24' E 004°59'0 0.0
2014-Oct-30 17:34N 43°24' E 004°59'0 0.0
2014-Oct-30 16:33N 43°24' E 004°59'0 0.0
2014-Oct-30 15:34N 43°24' E 004°59'0 0.0
2014-Oct-30 14:34N 43°24' E 004°59'0 0.0
2014-Oct-30 13:33N 43°24' E 004°59'0 0.0
2014-Oct-30 12:33N 43°24' E 004°59'0 0.0
2014-Oct-30 11:33N 43°24' E 004°59'0 0.0
2014-Oct-30 10:33N 43°24' E 004°59'0 0.0
2014-Oct-30 09:33N 43°24' E 004°59'0 0.0
2014-Oct-30 08:33N 43°24' E 004°59'0 0.0
2014-Oct-30 07:34N 43°24' E 004°59'0 0.0
2014-Oct-30 06:34N 43°24' E 004°59'0 0.0
2014-Oct-30 05:33N 43°24' E 004°59'0 0.0
2014-Oct-30 04:34N 43°24' E 004°59'0 0.0
2014-Oct-30 03:33N 43°24' E 004°59'0 0.0
2014-Oct-30 02:34N 43°24' E 004°59'0 0.0
2014-Oct-30 01:34N 43°24' E 004°59'0 0.0
2014-Oct-30 00:34N 43°24' E 004°59'0 0.0
2014-Oct-29 23:34N 43°24' E 004°59'0 0.0
2014-Oct-29 22:34N 43°24' E 004°59'0 0.0
2014-Oct-29 21:34N 43°24' E 004°59'0 0.0
2014-Oct-29 20:33N 43°24' E 004°59'0 0.0
2014-Oct-29 19:33N 43°24' E 004°59'0 0.0
2014-Oct-29 18:33N 43°24' E 004°59'0 0.0
2014-Oct-29 17:33N 43°24' E 004°59'0 0.0
2014-Oct-29 16:34N 43°24' E 004°59'0 0.0
2014-Oct-29 15:33N 43°24' E 004°59'0 0.0
2014-Oct-29 14:34N 43°24' E 004°59'7 6.9
2014-Oct-29 13:33N 43°25' E 004°50'0 0.2
2014-Oct-29 12:33N 43°25' E 004°50'0 0.0
2014-Oct-29 11:33N 43°25' E 004°50'0 0.0
2014-Oct-29 10:33N 43°25' E 004°50'0 0.0
2014-Oct-29 09:33N 43°25' E 004°50'0 0.0
2014-Oct-29 08:33N 43°25' E 004°50'0 0.0
2014-Oct-29 07:34N 43°25' E 004°50'0 0.0
2014-Oct-29 06:33N 43°25' E 004°50'7 6.7
2014-Oct-29 05:33N 43°24' E 004°59'0 0.2
2014-Oct-29 04:34N 43°24' E 004°59'0 0.0
2014-Oct-29 03:34N 43°24' E 004°59'0 0.0
2014-Oct-29 02:34N 43°24' E 004°59'0 0.0
2014-Oct-29 01:34N 43°24' E 004°59'0 0.0
2014-Oct-29 00:34N 43°24' E 004°59'0 0.0
2014-Oct-28 23:34N 43°24' E 004°59'0 0.0
2014-Oct-28 22:34N 43°24' E 004°59'0 0.0
2014-Oct-28 21:33N 43°24' E 004°59'0 0.0
2014-Oct-28 20:34N 43°24' E 004°59'0 0.0
2014-Oct-28 19:34N 43°24' E 004°59'0 0.0
2014-Oct-28 18:34N 43°24' E 004°59'0 0.0
2014-Oct-28 17:34N 43°24' E 004°59'1 0.5
2014-Oct-28 16:34N 43°24' E 004°59'0 0.0
2014-Oct-28 15:34N 43°24' E 004°59'0 0.0
2014-Oct-28 14:33N 43°24' E 004°59'1 1.2
2014-Oct-28 13:33N 43°23' E 004°58'5 5.4
2014-Oct-28 12:33N 43°25' E 004°51'0 0.0
2014-Oct-28 11:33N 43°25' E 004°51'0 0.0
2014-Oct-28 10:33N 43°25' E 004°51'0 0.0
2014-Oct-28 09:33N 43°25' E 004°51'0 0.0
2014-Oct-28 08:33N 43°25' E 004°51'0 0.0
2014-Oct-28 07:34N 43°25' E 004°51'0 0.0
2014-Oct-28 06:33N 43°25' E 004°51'6 6.0
2014-Oct-28 05:34N 43°24' E 004°59'0 0.3
2014-Oct-28 04:34N 43°24' E 004°59'0 0.0
2014-Oct-28 03:34N 43°24' E 004°59'0 0.0
2014-Oct-28 02:33N 43°24' E 004°59'0 0.0
2014-Oct-28 01:33N 43°24' E 004°59'0 0.0
2014-Oct-28 00:34N 43°24' E 004°59'0 0.0
2014-Oct-27 23:34N 43°24' E 004°59'0 0.0
2014-Oct-27 22:34N 43°24' E 004°59'0 0.0
2014-Oct-27 21:34N 43°24' E 004°59'0 0.0
2014-Oct-27 20:34N 43°24' E 004°59'0 0.0
2014-Oct-27 19:33N 43°24' E 004°59'0 0.0
2014-Oct-27 18:34N 43°24' E 004°59'0 0.0
2014-Oct-27 17:34N 43°24' E 004°59'1 0.5
2014-Oct-27 16:34N 43°24' E 004°59'0 0.0
2014-Oct-27 15:33N 43°24' E 004°59'0 0.0
2014-Oct-27 14:34N 43°24' E 004°59'0 0.0
2014-Oct-27 13:34N 43°24' E 004°59'0 0.0
2014-Oct-27 12:34N 43°24' E 004°59'0 0.0
2014-Oct-27 11:34N 43°24' E 004°59'0 0.0
2014-Oct-27 10:33N 43°24' E 004°59'0 0.0
2014-Oct-27 09:34N 43°24' E 004°59'0 0.0
2014-Oct-27 08:34N 43°24' E 004°59'0 0.0
2014-Oct-27 07:33N 43°24' E 004°59'0 0.0
2014-Oct-27 06:33N 43°24' E 004°59'0 0.0
2014-Oct-27 05:34N 43°24' E 004°59'0 0.0
2014-Oct-27 04:34N 43°24' E 004°59'0 0.0
2014-Oct-27 03:34N 43°24' E 004°59'0 0.0
2014-Oct-27 02:34N 43°24' E 004°59'0 0.0
2014-Oct-27 01:34N 43°24' E 004°59'0 0.0
2014-Oct-27 00:34N 43°24' E 004°59'0 0.0
2014-Oct-26 23:34N 43°24' E 004°59'0 0.0
2014-Oct-26 22:34N 43°24' E 004°59'0 0.0
2014-Oct-26 21:34N 43°24' E 004°59'0 0.0
2014-Oct-26 20:33N 43°24' E 004°59'0 0.0
2014-Oct-26 19:33N 43°24' E 004°59'0 0.0
2014-Oct-26 18:34N 43°24' E 004°59'0 0.0
2014-Oct-26 17:33N 43°24' E 004°59'0 0.0
2014-Oct-26 16:34N 43°24' E 004°59'0 0.0
2014-Oct-26 15:33N 43°24' E 004°59'0 0.0
2014-Oct-26 14:34N 43°24' E 004°59'0 0.0
2014-Oct-26 13:34N 43°24' E 004°59'0 0.0
2014-Oct-26 12:34N 43°24' E 004°59'0 0.0
2014-Oct-26 11:34N 43°24' E 004°59'0 0.0
2014-Oct-26 10:34N 43°24' E 004°59'0 0.0
2014-Oct-26 09:33N 43°24' E 004°59'0 0.0
2014-Oct-26 08:34N 43°24' E 004°59'0 0.0
2014-Oct-26 07:34N 43°24' E 004°59'0 0.0
2014-Oct-26 06:34N 43°24' E 004°59'0 0.0
2014-Oct-26 05:34N 43°24' E 004°59'0 0.0
2014-Oct-26 04:34N 43°24' E 004°59'0 0.0
2014-Oct-26 03:33N 43°24' E 004°59'0 0.0
2014-Oct-26 02:34N 43°24' E 004°59'0 0.0
2014-Oct-26 01:34N 43°24' E 004°59'0 0.0
2014-Oct-26 00:34N 43°24' E 004°59'0 0.0
2014-Oct-25 23:34N 43°24' E 004°59'0 0.0
2014-Oct-25 22:34N 43°24' E 004°59'0 0.0
2014-Oct-25 21:33N 43°24' E 004°59'0 0.0
2014-Oct-25 20:34N 43°24' E 004°59'3 3.1
2014-Oct-25 19:33N 43°24' E 004°55'3 3.3
2014-Oct-25 18:33N 43°25' E 004°51'0 0.0
2014-Oct-25 17:33N 43°25' E 004°51'0 0.0
2014-Oct-25 16:33N 43°25' E 004°51'0 0.0
2014-Oct-25 15:33N 43°25' E 004°51'0 0.0
2014-Oct-25 14:33N 43°25' E 004°51'0 0.0
2014-Oct-25 13:33N 43°25' E 004°51'2 1.6
2014-Oct-25 12:33N 43°26' E 004°52'0 0.0
2014-Oct-25 11:33N 43°26' E 004°52'1 1.2
2014-Oct-25 10:33N 43°25' E 004°53'1110.6
2014-Oct-25 09:30N 43°17' E 005°05'1111.2
2014-Oct-25 08:33N 43°18' E 005°19'2 1.7
2014-Oct-25 07:15N 43°19' E 005°22'0 0.0
2014-Oct-25 06:09N 43°19' E 005°22'1 2.3
2014-Oct-25 05:31N 43°18' E 005°21'9 9.6
2014-Oct-25 04:33N 43°18' E 005°08'9 8.7
2014-Oct-25 03:33N 43°24' E 004°59'0 0.1
2014-Oct-25 02:34N 43°24' E 004°59'0 0.0
2014-Oct-25 01:33N 43°24' E 004°59'0 0.0
2014-Oct-25 00:33N 43°24' E 004°59'0 0.0
2014-Oct-24 23:34N 43°24' E 004°59'0 0.0
2014-Oct-24 22:34N 43°24' E 004°59'0 0.0
2014-Oct-24 21:33N 43°24' E 004°59'0 0.0
2014-Oct-24 20:34N 43°24' E 004°59'0 0.0
2014-Oct-24 19:34N 43°24' E 004°59'0 0.0
2014-Oct-24 18:34N 43°24' E 004°59'0 0.0
2014-Oct-24 17:34N 43°24' E 004°59'0 0.0
2014-Oct-24 16:33N 43°24' E 004°59'0 0.0
2014-Oct-24 15:34N 43°24' E 004°59'0 0.0
2014-Oct-24 14:34N 43°24' E 004°59'7 6.9
2014-Oct-24 13:33N 43°25' E 004°50'0 0.0
2014-Oct-24 12:33N 43°25' E 004°50'0 0.0
2014-Oct-24 11:33N 43°25' E 004°50'0 0.0
2014-Oct-24 10:33N 43°25' E 004°50'0 0.0
2014-Oct-24 09:33N 43°25' E 004°50'0 0.0
2014-Oct-24 08:33N 43°25' E 004°50'0 0.0
2014-Oct-24 07:33N 43°25' E 004°50'0 0.0
2014-Oct-24 06:33N 43°25' E 004°50'4 4.3
2014-Oct-24 05:33N 43°24' E 004°56'3 2.7
2014-Oct-24 04:34N 43°24' E 004°59'0 0.0
2014-Oct-24 03:33N 43°24' E 004°59'0 0.0
2014-Oct-24 02:34N 43°24' E 004°59'0 0.0
2014-Oct-24 01:33N 43°24' E 004°59'0 0.0
2014-Oct-24 00:33N 43°24' E 004°59'0 0.0
2014-Oct-23 23:34N 43°24' E 004°59'0 0.0
2014-Oct-23 22:34N 43°24' E 004°59'0 0.0
2014-Oct-23 21:34N 43°24' E 004°59'0 0.0
2014-Oct-23 20:34N 43°24' E 004°59'0 0.0
2014-Oct-23 19:33N 43°24' E 004°59'0 0.0
2014-Oct-23 18:33N 43°24' E 004°59'1 1.3
2014-Oct-23 17:33N 43°22' E 004°59'9 8.7
2014-Oct-23 16:33N 43°14' E 005°02'41 9.7
2014-Oct-23 12:22N 43°03' E 005°56'4 4.5
2014-Oct-23 11:31N 43°07' E 005°56'0 0.0
2014-Oct-23 10:31N 43°07' E 005°56'0 0.0
2014-Oct-23 09:31N 43°07' E 005°56'0 0.1
2014-Oct-23 08:31N 43°07' E 005°56'0 0.0
2014-Oct-23 07:31N 43°07' E 005°56'0 0.0
2014-Oct-23 06:31N 43°07' E 005°56'1 1.5
2014-Oct-23 05:33N 43°06' E 005°54'0 0.0
2014-Oct-23 04:32N 43°06' E 005°54'0 0.0
2014-Oct-23 03:33N 43°06' E 005°54'0 0.0
2014-Oct-23 02:33N 43°06' E 005°54'0 0.0
2014-Oct-23 01:32N 43°06' E 005°54'0 0.0
2014-Oct-23 00:33N 43°06' E 005°54'0 0.0
2014-Oct-22 23:33N 43°06' E 005°54'0 0.0
2014-Oct-22 22:33N 43°06' E 005°54'0 0.0
2014-Oct-22 21:33N 43°06' E 005°54'0 0.0
2014-Oct-22 20:33N 43°06' E 005°54'0 0.0
2014-Oct-22 19:33N 43°06' E 005°54'0 0.0
2014-Oct-22 18:33N 43°06' E 005°54'0 0.0
2014-Oct-22 17:33N 43°06' E 005°54'0 0.0
2014-Oct-22 16:33N 43°06' E 005°54'2 1.5
2014-Oct-22 15:31N 43°07' E 005°56'0 0.0
2014-Oct-22 14:31N 43°07' E 005°56'0 0.1
2014-Oct-22 13:33N 43°07' E 005°56'0 0.0
2014-Oct-22 12:33N 43°07' E 005°56'0 0.0
2014-Oct-22 11:33N 43°07' E 005°56'1 0.6
2014-Oct-22 10:33N 43°07' E 005°55'39 7.1
2014-Oct-22 05:07N 43°10' E 005°03'611.0
2014-Oct-22 04:33N 43°16' E 004°60'7 7.5
2014-Oct-22 03:33N 43°24' E 004°59'0 0.0
2014-Oct-22 02:33N 43°24' E 004°59'0 0.0
2014-Oct-22 01:33N 43°24' E 004°59'0 0.0
2014-Oct-22 00:33N 43°24' E 004°59'0 0.0
2014-Oct-21 23:33N 43°24' E 004°59'0 0.0
2014-Oct-21 22:33N 43°24' E 004°59'0 0.0
2014-Oct-21 21:33N 43°24' E 004°59'  
Track history (hours):
 
Tides and Currents Weather Stations Pressure Air Temp Water Temp Dewpoint Dewpoint Depression Visibility Wind Speed Wind Dir Waves Ship Positions

Cap Aiguades

Last reported at 2014-Oct-31 21:33 UTC. Time now 2014-Oct-31 21:40 UTC.
Position N 43°25' E 004°51'.

Length 89 m; draft 3.3 m.

Type: Ship. MMSI: 228237800.

Date/timePositionNaut miles runAvg speedWind from/ knotsBaromVisibWave heightAir tempDewpointWater temp
2014-Oct-31 21:33N 43°25' E 004°51'0 0.0
2014-Oct-31 20:28N 43°25' E 004°51'0 0.0
2014-Oct-31 19:33N 43°25' E 004°51'0 0.0
2014-Oct-31 18:33N 43°25' E 004°51'0 0.0
2014-Oct-31 17:32N 43°25' E 004°51'6 6.1
2014-Oct-31 16:34N 43°23' E 004°59'0 0.4
2014-Oct-31 15:34N 43°24' E 004°59'0 0.0
2014-Oct-31 14:34N 43°24' E 004°59'0 0.0
2014-Oct-31 13:33N 43°24' E 004°59'0 0.0
2014-Oct-31 12:34N 43°24' E 004°59'0 0.0
2014-Oct-31 11:34N 43°24' E 004°59'0 0.0
2014-Oct-31 10:34N 43°24' E 004°59'0 0.0
2014-Oct-31 09:34N 43°24' E 004°59'0 0.0
2014-Oct-31 08:34N 43°24' E 004°59'0 0.0
2014-Oct-31 07:34N 43°24' E 004°59'0 0.0
2014-Oct-31 06:33N 43°24' E 004°59'0 0.0
2014-Oct-31 05:34N 43°24' E 004°59'1 0.6
2014-Oct-31 04:34N 43°24' E 004°59'0 0.0
2014-Oct-31 03:33N 43°24' E 004°59'0 0.0
2014-Oct-31 02:33N 43°24' E 004°59'0 0.0
2014-Oct-31 01:33N 43°24' E 004°59'0 0.0
2014-Oct-31 00:34N 43°24' E 004°59'0 0.0
2014-Oct-30 23:33N 43°24' E 004°59'0 0.0
2014-Oct-30 22:34N 43°24' E 004°59'0 0.0
2014-Oct-30 21:33N 43°24' E 004°59'0 0.0
2014-Oct-30 20:33N 43°24' E 004°59'0 0.0
2014-Oct-30 19:34N 43°24' E 004°59'0 0.0
2014-Oct-30 18:34N 43°24' E 004°59'0 0.0
2014-Oct-30 17:34N 43°24' E 004°59'0 0.0
2014-Oct-30 16:33N 43°24' E 004°59'0 0.0
2014-Oct-30 15:34N 43°24' E 004°59'0 0.0
2014-Oct-30 14:34N 43°24' E 004°59'0 0.0
2014-Oct-30 13:33N 43°24' E 004°59'0 0.0
2014-Oct-30 12:33N 43°24' E 004°59'0 0.0
2014-Oct-30 11:33N 43°24' E 004°59'0 0.0
2014-Oct-30 10:33N 43°24' E 004°59'0 0.0
2014-Oct-30 09:33N 43°24' E 004°59'0 0.0
2014-Oct-30 08:33N 43°24' E 004°59'0 0.0
2014-Oct-30 07:34N 43°24' E 004°59'0 0.0
2014-Oct-30 06:34N 43°24' E 004°59'0 0.0
2014-Oct-30 05:33N 43°24' E 004°59'0 0.0
2014-Oct-30 04:34N 43°24' E 004°59'0 0.0
2014-Oct-30 03:33N 43°24' E 004°59'0 0.0
2014-Oct-30 02:34N 43°24' E 004°59'0 0.0
2014-Oct-30 01:34N 43°24' E 004°59'0 0.0
2014-Oct-30 00:34N 43°24' E 004°59'0 0.0
2014-Oct-29 23:34N 43°24' E 004°59'0 0.0
2014-Oct-29 22:34N 43°24' E 004°59'0 0.0
2014-Oct-29 21:34N 43°24' E 004°59'0 0.0
2014-Oct-29 20:33N 43°24' E 004°59'0 0.0
2014-Oct-29 19:33N 43°24' E 004°59'0 0.0
2014-Oct-29 18:33N 43°24' E 004°59'0 0.0
2014-Oct-29 17:33N 43°24' E 004°59'0 0.0
2014-Oct-29 16:34N 43°24' E 004°59'0 0.0
2014-Oct-29 15:33N 43°24' E 004°59'0 0.0
2014-Oct-29 14:34N 43°24' E 004°59'7 6.9
2014-Oct-29 13:33N 43°25' E 004°50'0 0.2
2014-Oct-29 12:33N 43°25' E 004°50'0 0.0
2014-Oct-29 11:33N 43°25' E 004°50'0 0.0
2014-Oct-29 10:33N 43°25' E 004°50'0 0.0
2014-Oct-29 09:33N 43°25' E 004°50'0 0.0
2014-Oct-29 08:33N 43°25' E 004°50'0 0.0
2014-Oct-29 07:34N 43°25' E 004°50'0 0.0
2014-Oct-29 06:33N 43°25' E 004°50'7 6.7
2014-Oct-29 05:33N 43°24' E 004°59'0 0.2
2014-Oct-29 04:34N 43°24' E 004°59'0 0.0
2014-Oct-29 03:34N 43°24' E 004°59'0 0.0
2014-Oct-29 02:34N 43°24' E 004°59'0 0.0
2014-Oct-29 01:34N 43°24' E 004°59'0 0.0
2014-Oct-29 00:34N 43°24' E 004°59'0 0.0
2014-Oct-28 23:34N 43°24' E 004°59'0 0.0
2014-Oct-28 22:34N 43°24' E 004°59'0 0.0
2014-Oct-28 21:33N 43°24' E 004°59'0 0.0
2014-Oct-28 20:34N 43°24' E 004°59'0 0.0
2014-Oct-28 19:34N 43°24' E 004°59'0 0.0
2014-Oct-28 18:34N 43°24' E 004°59'0 0.0
2014-Oct-28 17:34N 43°24' E 004°59'1 0.5
2014-Oct-28 16:34N 43°24' E 004°59'0 0.0
2014-Oct-28 15:34N 43°24' E 004°59'0 0.0
2014-Oct-28 14:33N 43°24' E 004°59'1 1.2
2014-Oct-28 13:33N 43°23' E 004°58'5 5.4
2014-Oct-28 12:33N 43°25' E 004°51'0 0.0
2014-Oct-28 11:33N 43°25' E 004°51'0 0.0
2014-Oct-28 10:33N 43°25' E 004°51'0 0.0
2014-Oct-28 09:33N 43°25' E 004°51'0 0.0
2014-Oct-28 08:33N 43°25' E 004°51'0 0.0
2014-Oct-28 07:34N 43°25' E 004°51'0 0.0
2014-Oct-28 06:33N 43°25' E 004°51'6 6.0
2014-Oct-28 05:34N 43°24' E 004°59'0 0.3
2014-Oct-28 04:34N 43°24' E 004°59'0 0.0
2014-Oct-28 03:34N 43°24' E 004°59'0 0.0
2014-Oct-28 02:33N 43°24' E 004°59'0 0.0
2014-Oct-28 01:33N 43°24' E 004°59'0 0.0
2014-Oct-28 00:34N 43°24' E 004°59'0 0.0
2014-Oct-27 23:34N 43°24' E 004°59'0 0.0
2014-Oct-27 22:34N 43°24' E 004°59'0 0.0
2014-Oct-27 21:34N 43°24' E 004°59'0 0.0
2014-Oct-27 20:34N 43°24' E 004°59'0 0.0
2014-Oct-27 19:33N 43°24' E 004°59'0 0.0
2014-Oct-27 18:34N 43°24' E 004°59'0 0.0
2014-Oct-27 17:34N 43°24' E 004°59'1 0.5
2014-Oct-27 16:34N 43°24' E 004°59'0 0.0
2014-Oct-27 15:33N 43°24' E 004°59'0 0.0
2014-Oct-27 14:34N 43°24' E 004°59'0 0.0
2014-Oct-27 13:34N 43°24' E 004°59'0 0.0
2014-Oct-27 12:34N 43°24' E 004°59'0 0.0
2014-Oct-27 11:34N 43°24' E 004°59'0 0.0
2014-Oct-27 10:33N 43°24' E 004°59'0 0.0
2014-Oct-27 09:34N 43°24' E 004°59'0 0.0
2014-Oct-27 08:34N 43°24' E 004°59'0 0.0
2014-Oct-27 07:33N 43°24' E 004°59'0 0.0
2014-Oct-27 06:33N 43°24' E 004°59'0 0.0
2014-Oct-27 05:34N 43°24' E 004°59'0 0.0
2014-Oct-27 04:34N 43°24' E 004°59'0 0.0
2014-Oct-27 03:34N 43°24' E 004°59'0 0.0
2014-Oct-27 02:34N 43°24' E 004°59'0 0.0
2014-Oct-27 01:34N 43°24' E 004°59'0 0.0
2014-Oct-27 00:34N 43°24' E 004°59'0 0.0
2014-Oct-26 23:34N 43°24' E 004°59'0 0.0
2014-Oct-26 22:34N 43°24' E 004°59'0 0.0
2014-Oct-26 21:34N 43°24' E 004°59'0 0.0
2014-Oct-26 20:33N 43°24' E 004°59'0 0.0
2014-Oct-26 19:33N 43°24' E 004°59'0 0.0
2014-Oct-26 18:34N 43°24' E 004°59'0 0.0
2014-Oct-26 17:33N 43°24' E 004°59'0 0.0
2014-Oct-26 16:34N 43°24' E 004°59'0 0.0
2014-Oct-26 15:33N 43°24' E 004°59'0 0.0
2014-Oct-26 14:34N 43°24' E 004°59'0 0.0
2014-Oct-26 13:34N 43°24' E 004°59'0 0.0
2014-Oct-26 12:34N 43°24' E 004°59'0 0.0
2014-Oct-26 11:34N 43°24' E 004°59'0 0.0
2014-Oct-26 10:34N 43°24' E 004°59'0 0.0
2014-Oct-26 09:33N 43°24' E 004°59'0 0.0
2014-Oct-26 08:34N 43°24' E 004°59'0 0.0
2014-Oct-26 07:34N 43°24' E 004°59'0 0.0
2014-Oct-26 06:34N 43°24' E 004°59'0 0.0
2014-Oct-26 05:34N 43°24' E 004°59'0 0.0
2014-Oct-26 04:34N 43°24' E 004°59'0 0.0
2014-Oct-26 03:33N 43°24' E 004°59'0 0.0
2014-Oct-26 02:34N 43°24' E 004°59'0 0.0
2014-Oct-26 01:34N 43°24' E 004°59'0 0.0
2014-Oct-26 00:34N 43°24' E 004°59'0 0.0
2014-Oct-25 23:34N 43°24' E 004°59'0 0.0
2014-Oct-25 22:34N 43°24' E 004°59'0 0.0
2014-Oct-25 21:33N 43°24' E 004°59'0 0.0
2014-Oct-25 20:34N 43°24' E 004°59'3 3.1
2014-Oct-25 19:33N 43°24' E 004°55'3 3.3
2014-Oct-25 18:33N 43°25' E 004°51'0 0.0
2014-Oct-25 17:33N 43°25' E 004°51'0 0.0
2014-Oct-25 16:33N 43°25' E 004°51'0 0.0
2014-Oct-25 15:33N 43°25' E 004°51'0 0.0
2014-Oct-25 14:33N 43°25' E 004°51'0 0.0
2014-Oct-25 13:33N 43°25' E 004°51'2 1.6
2014-Oct-25 12:33N 43°26' E 004°52'0 0.0
2014-Oct-25 11:33N 43°26' E 004°52'1 1.2
2014-Oct-25 10:33N 43°25' E 004°53'1110.6
2014-Oct-25 09:30N 43°17' E 005°05'1111.2
2014-Oct-25 08:33N 43°18' E 005°19'2 1.7
2014-Oct-25 07:15N 43°19' E 005°22'0 0.0
2014-Oct-25 06:09N 43°19' E 005°22'1 2.3
2014-Oct-25 05:31N 43°18' E 005°21'9 9.6
2014-Oct-25 04:33N 43°18' E 005°08'9 8.7
2014-Oct-25 03:33N 43°24' E 004°59'0 0.1
2014-Oct-25 02:34N 43°24' E 004°59'0 0.0
2014-Oct-25 01:33N 43°24' E 004°59'0 0.0
2014-Oct-25 00:33N 43°24' E 004°59'0 0.0
2014-Oct-24 23:34N 43°24' E 004°59'0 0.0
2014-Oct-24 22:34N 43°24' E 004°59'0 0.0
2014-Oct-24 21:33N 43°24' E 004°59'0 0.0
2014-Oct-24 20:34N 43°24' E 004°59'0 0.0
2014-Oct-24 19:34N 43°24' E 004°59'0 0.0
2014-Oct-24 18:34N 43°24' E 004°59'0 0.0
2014-Oct-24 17:34N 43°24' E 004°59'0 0.0
2014-Oct-24 16:33N 43°24' E 004°59'0 0.0
2014-Oct-24 15:34N 43°24' E 004°59'0 0.0
2014-Oct-24 14:34N 43°24' E 004°59'7 6.9
2014-Oct-24 13:33N 43°25' E 004°50'0 0.0
2014-Oct-24 12:33N 43°25' E 004°50'0 0.0
2014-Oct-24 11:33N 43°25' E 004°50'0 0.0
2014-Oct-24 10:33N 43°25' E 004°50'0 0.0
2014-Oct-24 09:33N 43°25' E 004°50'0 0.0
2014-Oct-24 08:33N 43°25' E 004°50'0 0.0
2014-Oct-24 07:33N 43°25' E 004°50'0 0.0
2014-Oct-24 06:33N 43°25' E 004°50'4 4.3
2014-Oct-24 05:33N 43°24' E 004°56'3 2.7
2014-Oct-24 04:34N 43°24' E 004°59'0 0.0
2014-Oct-24 03:33N 43°24' E 004°59'0 0.0
2014-Oct-24 02:34N 43°24' E 004°59'0 0.0
2014-Oct-24 01:33N 43°24' E 004°59'0 0.0
2014-Oct-24 00:33N 43°24' E 004°59'0 0.0
2014-Oct-23 23:34N 43°24' E 004°59'0 0.0
2014-Oct-23 22:34N 43°24' E 004°59'0 0.0
2014-Oct-23 21:34N 43°24' E 004°59'0 0.0
2014-Oct-23 20:34N 43°24' E 004°59'0 0.0
2014-Oct-23 19:33N 43°24' E 004°59'0 0.0
2014-Oct-23 18:33N 43°24' E 004°59'1 1.3
2014-Oct-23 17:33N 43°22' E 004°59'9 8.7
2014-Oct-23 16:33N 43°14' E 005°02'41 9.7
2014-Oct-23 12:22N 43°03' E 005°56'4 4.5
2014-Oct-23 11:31N 43°07' E 005°56'0 0.0
2014-Oct-23 10:31N 43°07' E 005°56'0 0.0
2014-Oct-23 09:31N 43°07' E 005°56'0 0.1
2014-Oct-23 08:31N 43°07' E 005°56'0 0.0
2014-Oct-23 07:31N 43°07' E 005°56'0 0.0
2014-Oct-23 06:31N 43°07' E 005°56'1 1.5
2014-Oct-23 05:33N 43°06' E 005°54'0 0.0
2014-Oct-23 04:32N 43°06' E 005°54'0 0.0
2014-Oct-23 03:33N 43°06' E 005°54'0 0.0
2014-Oct-23 02:33N 43°06' E 005°54'0 0.0
2014-Oct-23 01:32N 43°06' E 005°54'0 0.0
2014-Oct-23 00:33N 43°06' E 005°54'0 0.0
2014-Oct-22 23:33N 43°06' E 005°54'0 0.0
2014-Oct-22 22:33N 43°06' E 005°54'0 0.0
2014-Oct-22 21:33N 43°06' E 005°54'0 0.0
2014-Oct-22 20:33N 43°06' E 005°54'0 0.0
2014-Oct-22 19:33N 43°06' E 005°54'0 0.0
2014-Oct-22 18:33N 43°06' E 005°54'0 0.0
2014-Oct-22 17:33N 43°06' E 005°54'0 0.0
2014-Oct-22 16:33N 43°06' E 005°54'2 1.5
2014-Oct-22 15:31N 43°07' E 005°56'0 0.0
2014-Oct-22 14:31N 43°07' E 005°56'0 0.1
2014-Oct-22 13:33N 43°07' E 005°56'0 0.0
2014-Oct-22 12:33N 43°07' E 005°56'0 0.0
2014-Oct-22 11:33N 43°07' E 005°56'1 0.6
2014-Oct-22 10:33N 43°07' E 005°55'39 7.1
2014-Oct-22 05:07N 43°10' E 005°03'611.0
2014-Oct-22 04:33N 43°16' E 004°60'7 7.5
2014-Oct-22 03:33N 43°24' E 004°59'0 0.0
2014-Oct-22 02:33N 43°24' E 004°59'0 0.0
2014-Oct-22 01:33N 43°24' E 004°59'0 0.0
2014-Oct-22 00:33N 43°24' E 004°59'0 0.0
2014-Oct-21 23:33N 43°24' E 004°59'0 0.0
2014-Oct-21 22:33N 43°24' E 004°59'0 0.0
2014-Oct-21 21:33N 43°24' E 004°59'  

Dump ship's entire track history